Terminal Aerodrome Forecast
Issued by NWS Duluth, MN

Home | Current Version | Previous Version | Text Only | Print | Product List | Glossary On
Versions: 1 2 3 4 5 6 7 8 9 10 11 12 13 14 15 16 17 18
000
FTUS43 KDLH 251138
TAFINL
TAF
KINL 251138Z 2512/2612 12007KT P6SM OVC029
     FM251900 14009KT P6SM BKN050
     FM252000 14008KT P6SM SCT050
     FM260500 15006KT P6SM BKN025=

USA.gov is the U.S. government's official web portal to all federal, state and local government web resources and services.